sensor_id;sensor_type;location;lat;lon;timestamp;pressure;altitude;pressure_sealevel;temperature;humidity
11114;BME280;5610;52.154;9.198;2022-12-11T00:00:16;100296.56;;;1.90;100.00
11114;BME280;5610;52.154;9.198;2022-12-11T00:03:01;100293.00;;;1.91;100.00
11114;BME280;5610;52.154;9.198;2022-12-11T00:05:47;100286.03;;;1.90;100.00
11114;BME280;5610;52.154;9.198;2022-12-11T00:08:32;100283.34;;;1.92;100.00
11114;BME280;5610;52.154;9.198;2022-12-11T00:11:18;100278.09;;;1.92;100.00
11114;BME280;5610;52.154;9.198;2022-12-11T00:14:05;100283.34;;;1.92;100.00
11114;BME280;5610;52.154;9.198;2022-12-11T00:16:50;100274.56;;;1.93;100.00
11114;BME280;5610;52.154;9.198;2022-12-11T00:19:35;100278.03;;;1.93;100.00
11114;BME280;5610;52.154;9.198;2022-12-11T00:22:21;100282.38;;;1.95;100.00
11114;BME280;5610;52.154;9.198;2022-12-11T00:25:07;100271.88;;;1.95;100.00
11114;BME280;5610;52.154;9.198;2022-12-11T00:27:52;100278.97;;;1.92;100.00
11114;BME280;5610;52.154;9.198;2022-12-11T00:30:40;100284.16;;;1.94;100.00
11114;BME280;5610;52.154;9.198;2022-12-11T00:33:27;100283.41;;;1.90;100.00
11114;BME280;5610;52.154;9.198;2022-12-11T00:36:14;100282.53;;;1.90;100.00
11114;BME280;5610;52.154;9.198;2022-12-11T00:39:00;100286.06;;;1.89;100.00
11114;BME280;5610;52.154;9.198;2022-12-11T00:41:46;100282.50;;;1.91;100.00
11114;BME280;5610;52.154;9.198;2022-12-11T00:44:32;100281.66;;;1.89;100.00
11114;BME280;5610;52.154;9.198;2022-12-11T00:47:18;100287.75;;;1.91;100.00
11114;BME280;5610;52.154;9.198;2022-12-11T00:50:05;100291.25;;;1.92;100.00
11114;BME280;5610;52.154;9.198;2022-12-11T00:52:50;100289.47;;;1.92;100.00
11114;BME280;5610;52.154;9.198;2022-12-11T00:55:36;100286.06;;;1.89;100.00
11114;BME280;5610;52.154;9.198;2022-12-11T00:58:22;100285.22;;;1.88;100.00
11114;BME280;5610;52.154;9.198;2022-12-11T01:01:10;100288.75;;;1.87;100.00
11114;BME280;5610;52.154;9.198;2022-12-11T01:03:57;100277.44;;;1.85;100.00
11114;BME280;5610;52.154;9.198;2022-12-11T01:06:42;100286.19;;;1.86;100.00
11114;BME280;5610;52.154;9.198;2022-12-11T01:09:27;100279.44;;;1.77;100.00
11114;BME280;5610;52.154;9.198;2022-12-11T01:12:31;100288.84;;;1.84;100.00
11114;BME280;5610;52.154;9.198;2022-12-11T01:15:16;100288.81;;;1.86;100.00
11114;BME280;5610;52.154;9.198;2022-12-11T01:18:01;100291.44;;;1.86;100.00
11114;BME280;5610;52.154;9.198;2022-12-11T01:20:48;100286.13;;;1.87;100.00
11114;BME280;5610;52.154;9.198;2022-12-11T01:23:33;100284.28;;;1.89;100.00
11114;BME280;5610;52.154;9.198;2022-12-11T01:26:18;100286.03;;;1.90;100.00
11114;BME280;5610;52.154;9.198;2022-12-11T01:29:04;100284.28;;;1.89;100.00
11114;BME280;5610;52.154;9.198;2022-12-11T01:31:49;100291.31;;;1.89;100.00
11114;BME280;5610;52.154;9.198;2022-12-11T01:34:34;100293.94;;;1.89;100.00
11114;BME280;5610;52.154;9.198;2022-12-11T01:37:21;100294.00;;;1.87;100.00
11114;BME280;5610;52.154;9.198;2022-12-11T01:40:08;100300.06;;;1.89;100.00
11114;BME280;5610;52.154;9.198;2022-12-11T01:42:53;100298.28;;;1.90;100.00
11114;BME280;5610;52.154;9.198;2022-12-11T01:45:39;100299.13;;;1.92;100.00
11114;BME280;5610;52.154;9.198;2022-12-11T01:48:29;100289.53;;;1.89;100.00
11114;BME280;5610;52.154;9.198;2022-12-11T01:51:15;100293.16;;;1.87;100.00
11114;BME280;5610;52.154;9.198;2022-12-11T01:54:06;100291.50;;;1.83;100.00
11114;BME280;5610;52.154;9.198;2022-12-11T01:56:54;100288.81;;;1.86;100.00
11114;BME280;5610;52.154;9.198;2022-12-11T01:59:42;100286.22;;;1.84;100.00
11114;BME280;5610;52.154;9.198;2022-12-11T02:02:29;100293.09;;;1.88;100.00
11114;BME280;5610;52.154;9.198;2022-12-11T02:05:15;100288.69;;;1.89;100.00
11114;BME280;5610;52.154;9.198;2022-12-11T02:08:01;100286.91;;;1.89;100.00
11114;BME280;5610;52.154;9.198;2022-12-11T02:10:56;100289.53;;;1.91;100.00
11114;BME280;5610;52.154;9.198;2022-12-11T02:13:51;100281.66;;;1.89;100.00
11114;BME280;5610;52.154;9.198;2022-12-11T02:16:44;100278.09;;;1.92;100.00
11114;BME280;5610;52.154;9.198;2022-12-11T02:19:43;100283.41;;;1.90;100.00
11114;BME280;5610;52.154;9.198;2022-12-11T02:25:46;100280.78;;;1.90;100.00
11114;BME280;5610;52.154;9.198;2022-12-11T02:28:41;100269.38;;;1.90;100.00
11114;BME280;5610;52.154;9.198;2022-12-11T02:31:31;100280.91;;;1.86;100.00
11114;BME280;5610;52.154;9.198;2022-12-11T02:34:24;100287.94;;;1.85;100.00
11114;BME280;5610;52.154;9.198;2022-12-11T02:37:17;100279.16;;;1.86;100.00
11114;BME280;5610;52.154;9.198;2022-12-11T02:40:07;100283.50;;;1.87;100.00
11114;BME280;5610;52.154;9.198;2022-12-11T02:42:55;100281.91;;;1.82;100.00
11114;BME280;5610;52.154;9.198;2022-12-11T02:45:45;100272.25;;;1.82;100.00
11114;BME280;5610;52.154;9.198;2022-12-11T02:48:31;100281.00;;;1.83;100.00
11114;BME280;5610;52.154;9.198;2022-12-11T02:51:20;100274.88;;;1.82;100.00
11114;BME280;5610;52.154;9.198;2022-12-11T02:54:09;100276.66;;;1.82;100.00
11114;BME280;5610;52.154;9.198;2022-12-11T02:56:59;100268.75;;;1.83;100.00
11114;BME280;5610;52.154;9.198;2022-12-11T02:59:45;100265.28;;;1.81;100.00
11114;BME280;5610;52.154;9.198;2022-12-11T03:02:32;100274.88;;;1.82;100.00
11114;BME280;5610;52.154;9.198;2022-12-11T03:05:17;100270.50;;;1.83;100.00
11114;BME280;5610;52.154;9.198;2022-12-11T03:08:03;100269.63;;;1.82;100.00
11114;BME280;5610;52.154;9.198;2022-12-11T03:10:48;100266.06;;;1.85;100.00
11114;BME280;5610;52.154;9.198;2022-12-11T03:13:33;100274.03;;;1.82;100.00
11114;BME280;5610;52.154;9.198;2022-12-11T03:16:24;100268.75;;;1.83;100.00
11114;BME280;5610;52.154;9.198;2022-12-11T03:19:21;100267.97;;;1.80;100.00
11114;BME280;5610;52.154;9.198;2022-12-11T03:22:10;100259.97;;;1.83;100.00
11114;BME280;5610;52.154;9.198;2022-12-11T03:25:00;100257.28;;;1.86;100.00
11114;BME280;5610;52.154;9.198;2022-12-11T03:27:50;100261.00;;;1.79;100.00
11114;BME280;5610;52.154;9.198;2022-12-11T03:30:39;100254.03;;;1.78;100.00
11114;BME280;5610;52.154;9.198;2022-12-11T03:33:28;100250.50;;;1.79;100.00
11114;BME280;5610;52.154;9.198;2022-12-11T03:36:19;100256.50;;;1.82;100.00
11114;BME280;5610;52.154;9.198;2022-12-11T03:39:09;100260.03;;;1.81;100.00
11114;BME280;5610;52.154;9.198;2022-12-11T03:41:58;100267.00;;;1.82;100.00
11114;BME280;5610;52.154;9.198;2022-12-11T03:44:48;100254.69;;;1.84;100.00
11114;BME280;5610;52.154;9.198;2022-12-11T03:47:35;100255.56;;;1.85;100.00
11114;BME280;5610;52.154;9.198;2022-12-11T03:50:22;100263.38;;;1.86;100.00
11114;BME280;5610;52.154;9.198;2022-12-11T03:53:11;100261.63;;;1.87;100.00
11114;BME280;5610;52.154;9.198;2022-12-11T03:55:58;100258.06;;;1.88;100.00
11114;BME280;5610;52.154;9.198;2022-12-11T03:58:44;100253.69;;;1.88;100.00
11114;BME280;5610;52.154;9.198;2022-12-11T04:01:29;100267.66;;;1.90;100.00
11114;BME280;5610;52.154;9.198;2022-12-11T04:04:15;100258.06;;;1.88;100.00
11114;BME280;5610;52.154;9.198;2022-12-11T04:07:00;100272.00;;;1.91;100.00
11114;BME280;5610;52.154;9.198;2022-12-11T04:09:47;100273.66;;;1.94;100.00
11114;BME280;5610;52.154;9.198;2022-12-11T04:12:33;100279.81;;;1.93;100.00
11114;BME280;5610;52.154;9.198;2022-12-11T04:15:18;100268.50;;;1.91;100.00
11114;BME280;5610;52.154;9.198;2022-12-11T04:18:04;100276.38;;;1.91;100.00
11114;BME280;5610;52.154;9.198;2022-12-11T04:21:07;100271.13;;;1.91;100.00
11114;BME280;5610;52.154;9.198;2022-12-11T04:24:10;100272.91;;;1.90;100.00
11114;BME280;5610;52.154;9.198;2022-12-11T04:27:03;100273.75;;;1.91;100.00
11114;BME280;5610;52.154;9.198;2022-12-11T04:29:48;100268.53;;;1.89;100.00
11114;BME280;5610;52.154;9.198;2022-12-11T04:32:33;100277.38;;;1.87;100.00
11114;BME280;5610;52.154;9.198;2022-12-11T04:35:19;100279.16;;;1.86;100.00
11114;BME280;5610;52.154;9.198;2022-12-11T04:38:05;100279.41;;;1.79;100.00
11114;BME280;5610;52.154;9.198;2022-12-11T04:40:56;100275.91;;;1.78;100.00
11114;BME280;5610;52.154;9.198;2022-12-11T04:43:43;100272.31;;;1.81;100.00
11114;BME280;5610;52.154;9.198;2022-12-11T04:46:29;100263.53;;;1.82;100.00
11114;BME280;5610;52.154;9.198;2022-12-11T04:49:14;100267.00;;;1.82;100.00
11114;BME280;5610;52.154;9.198;2022-12-11T04:51:59;100261.75;;;1.82;100.00
11114;BME280;5610;52.154;9.198;2022-12-11T04:54:45;100261.75;;;1.82;100.00
11114;BME280;5610;52.154;9.198;2022-12-11T04:57:30;100264.34;;;1.84;100.00
11114;BME280;5610;52.154;9.198;2022-12-11T05:00:17;100256.41;;;1.85;100.00
11114;BME280;5610;52.154;9.198;2022-12-11T05:03:02;100251.97;;;1.87;100.00
11114;BME280;5610;52.154;9.198;2022-12-11T05:05:48;100248.41;;;1.88;100.00
11114;BME280;5610;52.154;9.198;2022-12-11T05:08:35;100256.47;;;1.84;100.00
11114;BME280;5610;52.154;9.198;2022-12-11T05:11:20;100247.75;;;1.83;100.00
11114;BME280;5610;52.154;9.198;2022-12-11T05:14:05;100255.56;;;1.85;100.00
11114;BME280;5610;52.154;9.198;2022-12-11T05:16:52;100247.75;;;1.83;100.00
11114;BME280;5610;52.154;9.198;2022-12-11T05:19:37;100248.59;;;1.84;100.00
11114;BME280;5610;52.154;9.198;2022-12-11T05:22:22;100247.81;;;1.80;100.00
11114;BME280;5610;52.154;9.198;2022-12-11T05:25:08;100247.22;;;1.72;100.00
11114;BME280;5610;52.154;9.198;2022-12-11T05:27:53;100240.97;;;1.76;100.00
11114;BME280;5610;52.154;9.198;2022-12-11T05:30:39;100240.78;;;1.81;100.00
11114;BME280;5610;52.154;9.198;2022-12-11T05:33:25;100239.84;;;1.83;100.00
11114;BME280;5610;52.154;9.198;2022-12-11T05:36:14;100246.72;;;1.87;100.00
11114;BME280;5610;52.154;9.198;2022-12-11T05:39:00;100249.28;;;1.89;100.00
11114;BME280;5610;52.154;9.198;2022-12-11T05:41:45;100240.47;;;1.90;100.00
11114;BME280;5610;52.154;9.198;2022-12-11T05:44:30;100240.47;;;1.91;100.00
11114;BME280;5610;52.154;9.198;2022-12-11T05:47:16;100238.63;;;1.93;100.00
11114;BME280;5610;52.154;9.198;2022-12-11T05:50:05;100236.88;;;1.94;100.00
11114;BME280;5610;52.154;9.198;2022-12-11T05:52:50;100243.78;;;1.97;100.00
11114;BME280;5610;52.154;9.198;2022-12-11T05:55:36;100245.59;;;1.95;100.00
11114;BME280;5610;52.154;9.198;2022-12-11T05:58:21;100244.75;;;1.94;100.00
11114;BME280;5610;52.154;9.198;2022-12-11T06:01:07;100244.75;;;1.94;100.00
11114;BME280;5610;52.154;9.198;2022-12-11T06:03:54;100250.00;;;1.94;100.00
11114;BME280;5610;52.154;9.198;2022-12-11T06:06:41;100243.03;;;1.93;100.00
11114;BME280;5610;52.154;9.198;2022-12-11T06:09:26;100250.00;;;1.94;100.00
11114;BME280;5610;52.154;9.198;2022-12-11T06:12:12;100249.94;;;1.96;100.00
11114;BME280;5610;52.154;9.198;2022-12-11T06:14:57;100248.22;;;1.95;100.00
11114;BME280;5610;52.154;9.198;2022-12-11T06:17:42;100240.34;;;1.95;100.00
11114;BME280;5610;52.154;9.198;2022-12-11T06:20:29;100238.63;;;1.93;100.00
11114;BME280;5610;52.154;9.198;2022-12-11T06:23:16;100234.25;;;1.94;100.00
11114;BME280;5610;52.154;9.198;2022-12-11T06:26:02;100230.75;;;1.93;100.00
11114;BME280;5610;52.154;9.198;2022-12-11T06:28:48;100230.81;;;1.92;100.00
11114;BME280;5610;52.154;9.198;2022-12-11T06:31:33;100230.75;;;1.93;100.00
11114;BME280;5610;52.154;9.198;2022-12-11T06:34:18;100228.13;;;1.93;100.00
11114;BME280;5610;52.154;9.198;2022-12-11T06:37:03;100232.47;;;1.95;100.00
11114;BME280;5610;52.154;9.198;2022-12-11T06:39:50;100228.06;;;1.95;100.00
11114;BME280;5610;52.154;9.198;2022-12-11T06:42:35;100225.44;;;1.95;100.00
11114;BME280;5610;52.154;9.198;2022-12-11T06:45:20;100221.09;;;1.94;100.00
11114;BME280;5610;52.154;9.198;2022-12-11T06:48:05;100227.28;;;1.93;100.00
11114;BME280;5610;52.154;9.198;2022-12-11T06:50:50;100231.66;;;1.92;100.00
11114;BME280;5610;52.154;9.198;2022-12-11T06:53:36;100229.97;;;1.91;100.00
11114;BME280;5610;52.154;9.198;2022-12-11T06:56:23;100227.31;;;1.91;100.00
11114;BME280;5610;52.154;9.198;2022-12-11T06:59:10;100233.50;;;1.90;100.00
11114;BME280;5610;52.154;9.198;2022-12-11T07:01:55;100233.50;;;1.90;100.00
11114;BME280;5610;52.154;9.198;2022-12-11T07:04:41;100231.75;;;1.89;100.00
11114;BME280;5610;52.154;9.198;2022-12-11T07:07:26;100232.66;;;1.88;100.00
11114;BME280;5610;52.154;9.198;2022-12-11T07:10:11;100239.69;;;1.88;100.00
11114;BME280;5610;52.154;9.198;2022-12-11T07:12:58;100246.63;;;1.90;100.00
11114;BME280;5610;52.154;9.198;2022-12-11T07:15:43;100243.13;;;1.90;100.00
11114;BME280;5610;52.154;9.198;2022-12-11T07:18:29;100252.75;;;1.89;100.00
11114;BME280;5610;52.154;9.198;2022-12-11T07:21:16;100239.63;;;1.89;100.00
11114;BME280;5610;52.154;9.198;2022-12-11T07:24:02;100250.19;;;1.88;100.00
11114;BME280;5610;52.154;9.198;2022-12-11T07:26:47;100248.47;;;1.87;100.00
11114;BME280;5610;52.154;9.198;2022-12-11T07:29:34;100253.69;;;1.88;100.00
11114;BME280;5610;52.154;9.198;2022-12-11T07:32:19;100243.09;;;1.91;100.00
11114;BME280;5610;52.154;9.198;2022-12-11T07:35:05;100250.84;;;1.95;100.00
11114;BME280;5610;52.154;9.198;2022-12-11T07:37:50;100259.59;;;1.95;100.00
11114;BME280;5610;52.154;9.198;2022-12-11T07:40:35;100263.09;;;1.96;100.00
11114;BME280;5610;52.154;9.198;2022-12-11T07:43:21;100262.41;;;1.89;100.00
11114;BME280;5610;52.154;9.198;2022-12-11T07:46:10;100255.41;;;1.89;100.00
11114;BME280;5610;52.154;9.198;2022-12-11T07:48:56;100251.78;;;1.93;100.00
11114;BME280;5610;52.154;9.198;2022-12-11T07:51:42;100249.94;;;1.96;100.00
11114;BME280;5610;52.154;9.198;2022-12-11T07:54:27;100247.25;;;1.97;100.00
11114;BME280;5610;52.154;9.198;2022-12-11T07:57:13;100244.56;;;2.00;100.00
11114;BME280;5610;52.154;9.198;2022-12-11T07:59:58;100255.88;;;2.02;100.00
11114;BME280;5610;52.154;9.198;2022-12-11T08:02:44;100256.97;;;1.95;100.00
11114;BME280;5610;52.154;9.198;2022-12-11T08:05:30;100256.88;;;1.98;100.00
11114;BME280;5610;52.154;9.198;2022-12-11T08:08:15;100249.81;;;2.00;100.00
11114;BME280;5610;52.154;9.198;2022-12-11T08:11:01;100263.75;;;2.02;100.00
11114;BME280;5610;52.154;9.198;2022-12-11T08:13:47;100258.41;;;2.05;100.00
11114;BME280;5610;52.154;9.198;2022-12-11T08:16:33;100255.00;;;2.02;100.00
11114;BME280;5610;52.154;9.198;2022-12-11T08:19:19;100256.66;;;2.04;100.00
11114;BME280;5610;52.154;9.198;2022-12-11T08:22:04;100251.47;;;2.03;100.00
11114;BME280;5610;52.154;9.198;2022-12-11T08:24:50;100254.81;;;2.08;100.00
11114;BME280;5610;52.154;9.198;2022-12-11T08:27:35;100256.47;;;2.10;100.00
11114;BME280;5610;52.154;9.198;2022-12-11T08:30:20;100258.16;;;2.13;100.00
11114;BME280;5610;52.154;9.198;2022-12-11T08:33:06;100260.06;;;2.08;100.00
11114;BME280;5610;52.154;9.198;2022-12-11T08:35:52;100271.28;;;2.13;100.00
11114;BME280;5610;52.154;9.198;2022-12-11T08:38:38;100265.06;;;2.15;100.00
11114;BME280;5610;52.154;9.198;2022-12-11T08:41:24;100257.97;;;2.17;100.00
11114;BME280;5610;52.154;9.198;2022-12-11T08:44:11;100257.97;;;2.17;100.00
11114;BME280;5610;52.154;9.198;2022-12-11T08:46:57;100249.16;;;2.20;100.00
11114;BME280;5610;52.154;9.198;2022-12-11T08:49:43;100253.44;;;2.23;100.00
11114;BME280;5610;52.154;9.198;2022-12-11T08:52:33;100254.47;;;2.18;100.00
11114;BME280;5610;52.154;9.198;2022-12-11T08:55:18;100248.97;;;2.25;100.00
11114;BME280;5610;52.154;9.198;2022-12-11T08:58:04;100257.63;;;2.28;100.00
11114;BME280;5610;52.154;9.198;2022-12-11T09:00:50;100261.84;;;2.32;100.00
11114;BME280;5610;52.154;9.198;2022-12-11T09:03:35;100258.22;;;2.36;100.00
11114;BME280;5610;52.154;9.198;2022-12-11T09:06:21;100258.03;;;2.42;100.00
11114;BME280;5610;52.154;9.198;2022-12-11T09:09:08;100261.41;;;2.46;100.00
11114;BME280;5610;52.154;9.198;2022-12-11T09:11:54;100269.13;;;2.51;100.00
11114;BME280;5610;52.154;9.198;2022-12-11T09:14:39;100241.00;;;2.53;100.00
11114;BME280;5610;52.154;9.198;2022-12-11T09:17:24;100249.66;;;2.56;100.00
11114;BME280;5610;52.154;9.198;2022-12-11T09:20:10;100264.47;;;2.59;100.00
11114;BME280;5610;52.154;9.198;2022-12-11T09:22:55;100262.59;;;2.62;100.00
11114;BME280;5610;52.154;9.198;2022-12-11T09:25:42;100263.59;;;2.58;100.00
11114;BME280;5610;52.154;9.198;2022-12-11T09:28:27;100266.63;;;2.47;100.00
11114;BME280;5610;52.154;9.198;2022-12-11T09:31:14;100271.75;;;2.51;100.00
11114;BME280;5610;52.154;9.198;2022-12-11T09:34:01;100263.13;;;2.47;100.00
11114;BME280;5610;52.154;9.198;2022-12-11T09:36:47;100258.50;;;2.54;100.00
11114;BME280;5610;52.154;9.198;2022-12-11T09:39:33;100248.69;;;2.59;100.00
11114;BME280;5610;52.154;9.198;2022-12-11T09:42:28;100243.28;;;2.63;100.00
11114;BME280;5610;52.154;9.198;2022-12-11T09:45:15;100244.72;;;2.72;100.00
11114;BME280;5610;52.154;9.198;2022-12-11T09:48:01;100244.56;;;2.77;100.00
11114;BME280;5610;52.154;9.198;2022-12-11T09:50:47;100241.72;;;2.83;100.00
11114;BME280;5610;52.154;9.198;2022-12-11T09:53:35;100236.38;;;2.84;100.00
11114;BME280;5610;52.154;9.198;2022-12-11T09:56:24;100231.84;;;2.88;100.00
11114;BME280;5610;52.154;9.198;2022-12-11T09:59:19;100221.34;;;2.88;100.00
11114;BME280;5610;52.154;9.198;2022-12-11T10:02:22;100227.28;;;2.93;100.00
11114;BME280;5610;52.154;9.198;2022-12-11T10:05:18;100220.03;;;2.99;100.00
11114;BME280;5610;52.154;9.198;2022-12-11T10:08:11;100219.75;;;3.07;100.00
11114;BME280;5610;52.154;9.198;2022-12-11T10:11:06;100224.78;;;3.13;100.00
11114;BME280;5610;52.154;9.198;2022-12-11T10:14:03;100225.50;;;3.17;100.00
11114;BME280;5610;52.154;9.198;2022-12-11T10:16:55;100225.34;;;3.21;100.00
11114;BME280;5610;52.154;9.198;2022-12-11T10:19:43;100221.56;;;3.28;100.00
11114;BME280;5610;52.154;9.198;2022-12-11T10:22:30;100218.81;;;3.32;100.00
11114;BME280;5610;52.154;9.198;2022-12-11T10:25:20;100221.41;;;3.33;100.00
11114;BME280;5610;52.154;9.198;2022-12-11T10:28:10;100220.34;;;3.37;100.00
11114;BME280;5610;52.154;9.198;2022-12-11T10:31:02;100217.53;;;3.42;100.00
11114;BME280;5610;52.154;9.198;2022-12-11T10:33:59;100206.25;;;3.38;100.00
11114;BME280;5610;52.154;9.198;2022-12-11T10:36:44;100214.06;;;3.41;100.00
11114;BME280;5610;52.154;9.198;2022-12-11T10:39:30;100210.56;;;3.41;100.00
11114;BME280;5610;52.154;9.198;2022-12-11T10:42:18;100214.78;;;3.45;100.00
11114;BME280;5610;52.154;9.198;2022-12-11T10:45:04;100208.47;;;3.49;100.00
11114;BME280;5610;52.154;9.198;2022-12-11T10:47:49;100195.25;;;3.50;100.00
11114;BME280;5610;52.154;9.198;2022-12-11T10:51:03;100205.91;;;3.47;100.00
11114;BME280;5610;52.154;9.198;2022-12-11T10:53:50;100203.22;;;3.49;100.00
11114;BME280;5610;52.154;9.198;2022-12-11T10:56:37;100202.09;;;3.33;100.00
11114;BME280;5610;52.154;9.198;2022-12-11T10:59:25;100206.97;;;3.20;100.00
11114;BME280;5610;52.154;9.198;2022-12-11T11:02:18;100202.63;;;3.19;100.00
11114;BME280;5610;52.154;9.198;2022-12-11T11:05:11;100203.28;;;3.24;100.00
11114;BME280;5610;52.154;9.198;2022-12-11T11:08:19;100193.34;;;3.32;100.00
11114;BME280;5610;52.154;9.198;2022-12-11T11:11:19;100193.25;;;3.12;100.00
11114;BME280;5610;52.154;9.198;2022-12-11T11:14:09;100198.72;;;3.29;100.00
11114;BME280;5610;52.154;9.198;2022-12-11T11:16:56;100195.72;;;3.38;100.00
11114;BME280;5610;52.154;9.198;2022-12-11T11:19:45;100190.28;;;3.43;100.00
11114;BME280;5610;52.154;9.198;2022-12-11T11:22:31;100192.91;;;3.43;100.00
11114;BME280;5610;52.154;9.198;2022-12-11T11:25:20;100194.56;;;3.45;100.00
11114;BME280;5610;52.154;9.198;2022-12-11T11:28:06;100191.94;;;3.45;100.00
11114;BME280;5610;52.154;9.198;2022-12-11T11:31:01;100194.56;;;3.45;100.00
11114;BME280;5610;52.154;9.198;2022-12-11T11:33:53;100198.13;;;3.44;100.00
11114;BME280;5610;52.154;9.198;2022-12-11T11:36:40;100199.91;;;3.44;100.00
11114;BME280;5610;52.154;9.198;2022-12-11T11:39:29;100193.78;;;3.43;100.00
11114;BME280;5610;52.154;9.198;2022-12-11T11:42:20;100192.06;;;3.42;100.00
11114;BME280;5610;52.154;9.198;2022-12-11T11:45:14;100193.97;;;3.39;100.00
11114;BME280;5610;52.154;9.198;2022-12-11T11:48:09;100201.13;;;3.35;100.00
11114;BME280;5610;52.154;9.198;2022-12-11T11:50:56;100203.03;;;3.32;100.00
11114;BME280;5610;52.154;9.198;2022-12-11T11:53:46;100200.41;;;3.32;100.00
11114;BME280;5610;52.154;9.198;2022-12-11T11:56:34;100192.44;;;3.33;100.00
11114;BME280;5610;52.154;9.198;2022-12-11T11:59:24;100190.75;;;3.30;100.00
11114;BME280;5610;52.154;9.198;2022-12-11T12:02:13;100193.34;;;3.32;100.00
11114;BME280;5610;52.154;9.198;2022-12-11T12:04:59;100186.47;;;3.28;100.00
11114;BME280;5610;52.154;9.198;2022-12-11T12:07:51;100182.91;;;3.29;100.00
11114;BME280;5610;52.154;9.198;2022-12-11T12:10:46;100186.34;;;3.31;100.00
11114;BME280;5610;52.154;9.198;2022-12-11T12:13:42;100183.72;;;3.31;100.00
11114;BME280;5610;52.154;9.198;2022-12-11T12:16:39;100189.78;;;3.33;100.00
11114;BME280;5610;52.154;9.198;2022-12-11T12:19:44;100181.06;;;3.31;100.00
11114;BME280;5610;52.154;9.198;2022-12-11T12:22:47;100182.91;;;3.29;100.00
11114;BME280;5610;52.154;9.198;2022-12-11T12:25:39;100180.34;;;3.27;100.00
11114;BME280;5610;52.154;9.198;2022-12-11T12:28:35;100178.72;;;3.25;100.00
11114;BME280;5610;52.154;9.198;2022-12-11T12:31:36;100176.94;;;3.25;100.00
11114;BME280;5610;52.154;9.198;2022-12-11T12:34:35;100163.94;;;3.21;100.00
11114;BME280;5610;52.154;9.198;2022-12-11T12:37:28;100172.25;;;3.10;100.00
11114;BME280;5610;52.154;9.198;2022-12-11T12:40:27;100167.97;;;3.08;100.00
11114;BME280;5610;52.154;9.198;2022-12-11T12:43:30;100161.84;;;3.07;100.00
11114;BME280;5610;52.154;9.198;2022-12-11T12:46:25;100164.47;;;3.07;100.00
11114;BME280;5610;52.154;9.198;2022-12-11T12:49:24;100159.28;;;3.06;100.00
11114;BME280;5610;52.154;9.198;2022-12-11T12:52:14;100154.25;;;2.99;100.00
11114;BME280;5610;52.154;9.198;2022-12-11T12:55:06;100156.94;;;2.98;100.00
11114;BME280;5610;52.154;9.198;2022-12-11T12:58:07;100158.72;;;2.97;100.00
11114;BME280;5610;52.154;9.198;2022-12-11T13:01:13;100162.59;;;2.87;100.00
11114;BME280;5610;52.154;9.198;2022-12-11T13:04:01;100164.28;;;2.88;100.00
11114;BME280;5610;52.154;9.198;2022-12-11T13:06:48;100152.06;;;2.87;100.00
11114;BME280;5610;52.154;9.198;2022-12-11T13:09:34;100160.81;;;2.88;100.00
11114;BME280;5610;52.154;9.198;2022-12-11T13:12:30;100161.00;;;2.83;100.00
11114;BME280;5610;52.154;9.198;2022-12-11T13:15:28;100157.44;;;2.84;100.00
11114;BME280;5610;52.154;9.198;2022-12-11T13:18:38;100161.03;;;2.82;100.00
11114;BME280;5610;52.154;9.198;2022-12-11T13:21:32;100151.56;;;2.78;100.00
11114;BME280;5610;52.154;9.198;2022-12-11T13:24:25;100158.69;;;2.74;100.00
11114;BME280;5610;52.154;9.198;2022-12-11T13:27:22;100152.78;;;2.69;100.00
11114;BME280;5610;52.154;9.198;2022-12-11T13:30:22;100159.16;;;2.62;100.00
11114;BME280;5610;52.154;9.198;2022-12-11T13:33:14;100159.97;;;2.64;100.00
11114;BME280;5610;52.154;9.198;2022-12-11T13:36:24;100169.63;;;2.63;100.00
11114;BME280;5610;52.154;9.198;2022-12-11T13:39:16;100172.53;;;2.56;100.00
11114;BME280;5610;52.154;9.198;2022-12-11T13:42:05;100163.59;;;2.60;100.00
11114;BME280;5610;52.154;9.198;2022-12-11T13:44:50;100165.56;;;2.55;100.00
11114;BME280;5610;52.154;9.198;2022-12-11T13:47:37;100162.16;;;2.51;100.00
11114;BME280;5610;52.154;9.198;2022-12-11T13:50:24;100164.16;;;2.44;100.00
11114;BME280;5610;52.154;9.198;2022-12-11T13:53:14;100160.69;;;2.44;100.00
11114;BME280;5610;52.154;9.198;2022-12-11T13:56:01;100171.13;;;2.45;100.00
11114;BME280;5610;52.154;9.198;2022-12-11T13:58:49;100166.78;;;2.44;100.00
11114;BME280;5610;52.154;9.198;2022-12-11T14:01:34;100168.47;;;2.47;100.00
11114;BME280;5610;52.154;9.198;2022-12-11T14:04:20;100172.13;;;2.43;100.00
11114;BME280;5610;52.154;9.198;2022-12-11T14:07:08;100173.75;;;2.45;100.00
11114;BME280;5610;52.154;9.198;2022-12-11T14:09:58;100169.34;;;2.47;100.00
11114;BME280;5610;52.154;9.198;2022-12-11T14:12:48;100170.97;;;2.50;100.00
11114;BME280;5610;52.154;9.198;2022-12-11T14:15:35;100169.34;;;2.47;100.00
11114;BME280;5610;52.154;9.198;2022-12-11T14:18:29;100175.38;;;2.50;100.00
11114;BME280;5610;52.154;9.198;2022-12-11T14:21:18;100165.72;;;2.50;100.00
11114;BME280;5610;52.154;9.198;2022-12-11T14:24:04;100175.25;;;2.53;100.00
11114;BME280;5610;52.154;9.198;2022-12-11T14:26:50;100182.28;;;2.52;100.00
11114;BME280;5610;52.154;9.198;2022-12-11T14:29:36;100179.84;;;2.47;100.00
11114;BME280;5610;52.154;9.198;2022-12-11T14:32:29;100182.47;;;2.47;100.00
11114;BME280;5610;52.154;9.198;2022-12-11T14:35:23;100180.69;;;2.48;100.00
11114;BME280;5610;52.154;9.198;2022-12-11T14:38:13;100186.88;;;2.47;100.00
11114;BME280;5610;52.154;9.198;2022-12-11T14:41:03;100188.59;;;2.48;100.00
11114;BME280;5610;52.154;9.198;2022-12-11T14:43:52;100193.00;;;2.47;100.00
11114;BME280;5610;52.154;9.198;2022-12-11T14:46:42;100194.72;;;2.48;100.00
11114;BME280;5610;52.154;9.198;2022-12-11T14:49:37;100193.84;;;2.48;100.00
11114;BME280;5610;52.154;9.198;2022-12-11T14:52:29;100196.56;;;2.45;100.00
11114;BME280;5610;52.154;9.198;2022-12-11T14:55:20;100199.25;;;2.43;100.00